Time;durP1;ratioP1;P1;durP2;ratioP2;P2;SDS_P1;SDS_P2;PMS_P1;PMS_P2;Temp;Humidity;BMP_temperature;BMP_pressure;BME280_temperature;BME280_humidity;BME280_pressure;Samples;Min_cycle;Max_cycle;Signal;HPM_P1;HPM_P2
2023/08/21 00:00:13;;;;;;;10.30;9.50;;;;;;;21.15;nan;97420.53;5016145;28;20408;-63
2023/08/21 00:02:42;;;;;;;10.63;9.73;;;;;;;21.09;nan;97419.66;5018172;28;20262;-62
2023/08/21 00:05:10;;;;;;;11.70;10.80;;;;;;;21.02;nan;97413.59;5014829;28;20228;-63
2023/08/21 00:07:38;;;;;;;11.90;10.27;;;;;;;20.96;nan;97426.19;4890966;28;21588;-63
2023/08/21 00:10:07;;;;;;;11.97;10.90;;;;;;;20.86;nan;97426.03;5018996;28;20235;-63
2023/08/21 00:12:35;;;;;;;11.37;10.47;;;;;;;20.78;nan;97429.91;5013415;28;20201;-64
2023/08/21 00:15:03;;;;;;;11.30;10.50;;;;;;;20.76;nan;97423.13;5017464;28;20219;-62
2023/08/21 00:17:31;;;;;;;11.20;10.20;;;;;;;20.70;nan;97418.72;5013699;28;20200;-63
2023/08/21 00:20:00;;;;;;;11.70;10.80;;;;;;;20.63;nan;97422.38;5020749;28;20279;-63
2023/08/21 00:22:28;;;;;;;12.70;11.57;;;;;;;20.61;nan;97420.97;5014657;28;20322;-64
2023/08/21 00:24:55;;;;;;;12.23;11.07;;;;;;;20.66;nan;97416.50;5024580;28;20219;-64
2023/08/21 00:27:23;;;;;;;12.00;10.90;;;;;;;20.65;nan;97420.25;5017094;28;20343;-62
2023/08/21 00:29:51;;;;;;;12.43;11.43;;;;;;;20.67;nan;97426.22;5021036;28;20196;-62
2023/08/21 00:32:19;;;;;;;12.90;11.90;;;;;;;20.67;nan;97430.81;5014441;28;20222;-63
2023/08/21 00:34:46;;;;;;;12.00;11.20;;;;;;;20.70;nan;97426.78;5019479;28;20581;-62
2023/08/21 00:37:15;;;;;;;13.13;12.07;;;;;;;20.74;nan;97425.25;5012603;28;20329;-64
2023/08/21 00:39:43;;;;;;;13.27;12.07;;;;;;;20.71;nan;97426.56;5016725;28;20856;-63
2023/08/21 00:42:12;;;;;;;13.57;12.37;;;;;;;20.53;nan;97408.75;4959345;28;20208;-60
2023/08/21 00:44:40;;;;;;;13.73;12.33;;;;;;;20.63;nan;97426.94;4956728;28;20228;-62
2023/08/21 00:47:08;;;;;;;13.50;12.20;;;;;;;20.69;nan;97431.38;5017550;28;21425;-64
2023/08/21 00:49:36;;;;;;;14.73;13.57;;;;;;;20.65;nan;97430.22;5015046;28;20532;-63
2023/08/21 00:52:04;;;;;;;14.13;12.80;;;;;;;20.48;nan;97406.78;5018453;28;20877;-63
2023/08/21 00:54:34;;;;;;;14.00;12.90;;;;;;;20.53;nan;97427.59;5022737;28;20633;-62
2023/08/21 00:57:02;;;;;;;13.97;12.57;;;;;;;20.46;nan;97427.75;5019234;28;20236;-65
2023/08/21 00:59:30;;;;;;;14.10;12.90;;;;;;;20.41;nan;97424.97;5017769;28;20208;-63
2023/08/21 01:01:58;;;;;;;12.97;11.97;;;;;;;20.37;nan;97429.19;4960226;28;20211;-62
2023/08/21 01:04:26;;;;;;;13.10;11.93;;;;;;;20.38;nan;97420.06;5016214;28;20296;-62
2023/08/21 01:06:54;;;;;;;12.30;11.40;;;;;;;20.35;nan;97420.56;5013522;28;20231;-63
2023/08/21 01:09:28;;;;;;;13.40;12.40;;;;;;;20.31;nan;97422.91;5016709;28;20206;-62
2023/08/21 01:12:05;;;;;;;13.63;12.63;;;;;;;20.31;nan;97428.28;5012656;28;20210;-63
2023/08/21 01:14:39;;;;;;;14.23;13.23;;;;;;;20.31;nan;97425.59;5013136;28;20672;-63
2023/08/21 01:17:08;;;;;;;13.33;12.43;;;;;;;20.34;nan;97424.31;4885674;28;20790;-63
2023/08/21 01:19:37;;;;;;;12.50;11.40;;;;;;;20.36;nan;97422.19;5017406;28;20844;-62
2023/08/21 01:22:05;;;;;;;13.10;11.90;;;;;;;20.36;nan;97422.19;5014910;28;20219;-63
2023/08/21 01:24:34;;;;;;;13.80;12.63;;;;;;;20.37;nan;97429.19;5018314;28;20223;-63
2023/08/21 01:27:02;;;;;;;14.60;13.30;;;;;;;20.36;nan;97435.63;5014223;28;20220;-64
2023/08/21 01:29:30;;;;;;;13.30;12.30;;;;;;;20.38;nan;97430.81;5020162;28;20714;-63
2023/08/21 01:32:03;;;;;;;13.30;12.27;;;;;;;20.38;nan;97445.09;5015315;28;20197;-62
2023/08/21 01:34:33;;;;;;;13.17;11.97;;;;;;;20.38;nan;97446.97;5015918;28;20236;-62
2023/08/21 01:37:01;;;;;;;14.40;13.30;;;;;;;20.32;nan;97447.94;5011674;28;20231;-62
2023/08/21 01:39:29;;;;;;;12.40;11.47;;;;;;;20.28;nan;97447.59;5014842;28;20231;-65
2023/08/21 01:41:59;;;;;;;13.07;12.07;;;;;;;20.28;nan;97452.16;5014027;28;20205;-63
2023/08/21 01:44:27;;;;;;;13.70;12.70;;;;;;;20.33;nan;97454.97;5015954;28;20577;-63
2023/08/21 01:46:55;;;;;;;13.63;12.50;;;;;;;20.33;nan;97453.06;4889133;28;20236;-62
2023/08/21 01:49:23;;;;;;;13.90;12.90;;;;;;;20.34;nan;97446.63;5016959;28;20208;-62
2023/08/21 01:51:50;;;;;;;13.73;12.73;;;;;;;20.36;nan;97449.09;5013197;28;20224;-62
2023/08/21 01:54:18;;;;;;;13.03;11.93;;;;;;;20.35;nan;97434.00;5012592;28;20340;-65
2023/08/21 01:56:46;;;;;;;13.93;12.93;;;;;;;20.36;nan;97431.06;5013025;28;20231;-63
2023/08/21 01:59:17;;;;;;;12.80;11.90;;;;;;;20.34;nan;97425.09;5016217;28;20212;-63
2023/08/21 02:01:44;;;;;;;12.90;11.83;;;;;;;20.35;nan;97425.94;5011138;28;20224;-63
2023/08/21 02:04:12;;;;;;;14.33;13.23;;;;;;;20.39;nan;97427.09;5017435;28;20226;-64
2023/08/21 02:06:40;;;;;;;13.90;12.70;;;;;;;20.38;nan;97425.44;5013768;28;20297;-63
2023/08/21 02:09:08;;;;;;;13.63;12.40;;;;;;;20.36;nan;97422.19;5014674;28;20204;-63
2023/08/21 02:11:36;;;;;;;13.23;12.20;;;;;;;20.41;nan;97427.66;5012755;28;20672;-63
2023/08/21 02:14:04;;;;;;;13.67;12.63;;;;;;;20.46;nan;97433.13;5018889;28;20223;-63
2023/08/21 02:16:33;;;;;;;12.77;11.77;;;;;;;20.43;nan;97422.84;4885131;28;22258;-62
2023/08/21 02:19:01;;;;;;;12.70;11.47;;;;;;;20.49;nan;97431.84;5017828;28;20704;-62
2023/08/21 02:21:28;;;;;;;13.67;12.63;;;;;;;20.48;nan;97436.38;5012912;28;20200;-63
2023/08/21 02:23:56;;;;;;;12.83;11.93;;;;;;;20.45;nan;97441.44;5017788;28;20574;-60
2023/08/21 02:26:24;;;;;;;13.73;12.63;;;;;;;20.40;nan;97434.09;5012786;28;20224;-63
2023/08/21 02:28:51;;;;;;;15.07;13.87;;;;;;;20.36;nan;97439.13;5011680;28;20211;-63
2023/08/21 02:31:19;;;;;;;14.90;13.67;;;;;;;20.34;nan;97440.44;5008730;28;20203;-62
2023/08/21 02:33:49;;;;;;;14.30;13.03;;;;;;;20.39;nan;97432.47;5017709;28;20630;-64
2023/08/21 02:36:17;;;;;;;14.10;12.80;;;;;;;20.40;nan;97431.41;5017232;28;20231;-62
2023/08/21 02:38:45;;;;;;;14.90;13.53;;;;;;;20.20;nan;97421.09;5018398;28;20217;-62
2023/08/21 02:41:12;;;;;;;12.17;11.27;;;;;;;20.41;nan;97451.88;5018475;28;20203;-62
2023/08/21 02:43:42;;;;;;;14.20;12.77;;;;;;;20.37;nan;97435.38;5019116;28;20208;-62
2023/08/21 02:46:10;;;;;;;13.17;11.97;;;;;;;20.35;nan;97442.06;5012228;28;20232;-63
2023/08/21 02:48:38;;;;;;;12.67;11.70;;;;;;;20.28;nan;97436.84;5018482;28;20274;-62
2023/08/21 02:51:08;;;;;;;13.10;12.10;;;;;;;20.25;nan;97442.69;4917683;28;20755;-62
2023/08/21 02:53:36;;;;;;;14.07;12.83;;;;;;;20.21;nan;97446.94;5005859;28;20217;-61
2023/08/21 02:56:04;;;;;;;13.97;12.80;;;;;;;20.21;nan;97452.31;5018473;28;20227;-63
2023/08/21 02:58:31;;;;;;;14.30;13.10;;;;;;;20.18;nan;97440.13;5016378;28;20220;-62
2023/08/21 03:00:59;;;;;;;13.23;12.23;;;;;;;20.14;nan;97438.19;5019543;28;20200;-63
2023/08/21 03:03:27;;;;;;;13.53;12.37;;;;;;;20.08;nan;97431.88;5019003;28;20855;-63
2023/08/21 03:05:54;;;;;;;11.87;10.97;;;;;;;20.01;nan;97437.38;5019791;28;20235;-62
2023/08/21 03:08:23;;;;;;;12.87;11.87;;;;;;;20.00;nan;97438.44;5016431;28;20223;-62
2023/08/21 03:10:51;;;;;;;13.80;12.70;;;;;;;20.02;nan;97446.28;5017896;28;20215;-63
2023/08/21 03:13:19;;;;;;;12.87;11.87;;;;;;;20.06;nan;97442.88;5015321;28;20214;-63
2023/08/21 03:15:47;;;;;;;12.77;11.43;;;;;;;20.05;nan;97437.75;5017299;28;20330;-62
2023/08/21 03:18:14;;;;;;;13.93;12.73;;;;;;;20.03;nan;97437.16;5016614;28;20212;-62
2023/08/21 03:20:45;;;;;;;13.90;12.80;;;;;;;19.98;nan;97437.06;5021647;28;20215;-64
2023/08/21 03:23:13;;;;;;;12.37;11.37;;;;;;;19.97;nan;97441.63;5018325;28;20624;-62
2023/08/21 03:25:42;;;;;;;13.57;12.47;;;;;;;20.03;nan;97442.53;4985374;28;20644;-63
2023/08/21 03:28:10;;;;;;;13.73;12.63;;;;;;;20.03;nan;97443.34;4933998;28;20216;-64
2023/08/21 03:30:40;;;;;;;14.47;13.33;;;;;;;20.05;nan;97448.50;5016389;28;21457;-63
2023/08/21 03:33:08;;;;;;;13.20;12.00;;;;;;;20.00;nan;97449.19;5018452;28;20220;-62
2023/08/21 03:35:36;;;;;;;14.00;12.60;;;;;;;19.97;nan;97446.19;5017694;28;20695;-63
2023/08/21 03:38:04;;;;;;;13.60;12.50;;;;;;;19.90;nan;97440.91;5014840;28;20205;-63
2023/08/21 03:40:31;;;;;;;12.83;11.83;;;;;;;19.88;nan;97441.13;5020125;28;20691;-63
2023/08/21 03:43:00;;;;;;;13.43;12.43;;;;;;;19.89;nan;97442.78;5016795;28;20619;-62
2023/08/21 03:45:28;;;;;;;12.83;11.93;;;;;;;19.87;nan;97441.38;5018508;28;20216;-62
2023/08/21 03:47:56;;;;;;;13.17;12.27;;;;;;;19.86;nan;97440.56;5017593;28;20200;-62
2023/08/21 03:50:23;;;;;;;14.07;12.97;;;;;;;19.87;nan;97439.50;5018710;28;20212;-63
2023/08/21 03:52:51;;;;;;;13.13;11.97;;;;;;;19.84;nan;97437.28;5015039;28;20215;-62
2023/08/21 03:55:19;;;;;;;13.90;12.80;;;;;;;19.83;nan;97437.53;5019113;28;20199;-61
2023/08/21 03:57:46;;;;;;;12.90;12.00;;;;;;;19.79;nan;97439.88;4890629;28;20224;-62
2023/08/21 04:00:16;;;;;;;13.83;12.63;;;;;;;19.66;nan;97420.28;5018355;28;20216;-63
2023/08/21 04:02:44;;;;;;;13.57;12.60;;;;;;;19.77;nan;97431.22;5019009;28;20224;-61
2023/08/21 04:05:11;;;;;;;14.80;13.27;;;;;;;19.77;nan;97429.38;5027164;28;20204;-62
2023/08/21 04:07:39;;;;;;;14.23;13.13;;;;;;;19.72;nan;97420.38;5020104;28;20224;-62
2023/08/21 04:10:08;;;;;;;13.20;12.30;;;;;;;19.78;nan;97428.31;5024523;28;20200;-62
2023/08/21 04:12:35;;;;;;;13.07;12.13;;;;;;;19.78;nan;97430.19;5016255;28;20212;-62
2023/08/21 04:15:06;;;;;;;13.67;12.77;;;;;;;19.77;nan;97437.44;5019845;28;20204;-63
2023/08/21 04:17:35;;;;;;;13.67;12.63;;;;;;;19.78;nan;97441.75;5016154;28;20224;-63
2023/08/21 04:20:03;;;;;;;17.13;13.23;;;;;;;19.80;nan;97436.13;5021304;28;20216;-62
2023/08/21 04:22:31;;;;;;;14.20;12.97;;;;;;;19.80;nan;97439.66;5011512;28;20676;-62
2023/08/21 04:24:58;;;;;;;13.53;12.53;;;;;;;19.73;nan;97438.16;5020790;28;20695;-61
2023/08/21 04:27:26;;;;;;;13.90;12.47;;;;;;;19.67;nan;97440.72;5012469;28;20230;-62
2023/08/21 04:29:54;;;;;;;12.63;11.50;;;;;;;19.62;nan;97437.94;5018097;28;20226;-61
2023/08/21 04:32:22;;;;;;;13.83;12.63;;;;;;;19.59;nan;97442.94;4886151;28;20212;-62
2023/08/21 04:34:51;;;;;;;14.13;12.93;;;;;;;19.58;nan;97444.84;5015782;28;20737;-61
2023/08/21 04:37:18;;;;;;;14.37;13.27;;;;;;;19.57;nan;97445.88;5010921;28;20296;-62
2023/08/21 04:39:46;;;;;;;14.70;13.40;;;;;;;19.55;nan;97457.91;5020208;28;20205;-61
2023/08/21 04:42:14;;;;;;;15.03;13.63;;;;;;;19.56;nan;97457.69;5017094;28;20208;-61
2023/08/21 04:44:42;;;;;;;14.50;13.50;;;;;;;19.57;nan;97462.03;5018464;28;20208;-62
2023/08/21 04:47:22;;;;;;;13.93;12.57;;;;;;;19.56;nan;97455.00;5014172;28;20231;-61
2023/08/21 04:49:52;;;;;;;13.80;12.77;;;;;;;19.57;nan;97455.81;5020641;28;20537;-61
2023/08/21 04:52:20;;;;;;;18.93;13.67;;;;;;;19.59;nan;97454.53;5014464;28;20212;-62
2023/08/21 04:54:48;;;;;;;14.37;13.17;;;;;;;19.58;nan;97454.75;5017421;28;20219;-62
2023/08/21 04:57:16;;;;;;;14.27;13.17;;;;;;;19.58;nan;97452.06;5013657;28;20227;-62
2023/08/21 04:59:45;;;;;;;15.43;14.23;;;;;;;19.59;nan;97464.44;5019217;28;20689;-63
2023/08/21 05:02:12;;;;;;;13.57;12.50;;;;;;;19.60;nan;97464.22;4890792;28;20204;-61
2023/08/21 05:04:41;;;;;;;14.90;13.70;;;;;;;19.62;nan;97461.28;5016034;28;20243;-60
2023/08/21 05:07:10;;;;;;;13.93;12.80;;;;;;;19.61;nan;97456.97;5015587;28;20232;-61
2023/08/21 05:09:37;;;;;;;13.63;12.47;;;;;;;19.62;nan;97459.44;5019087;28;21115;-61
2023/08/21 05:12:06;;;;;;;13.80;12.80;;;;;;;19.65;nan;97463.50;5016319;28;20239;-61
2023/08/21 05:14:34;;;;;;;14.23;13.13;;;;;;;19.64;nan;97473.47;5016590;28;20243;-62
2023/08/21 05:17:01;;;;;;;15.23;14.10;;;;;;;19.61;nan;97473.09;5013370;28;20216;-63
2023/08/21 05:19:29;;;;;;;14.30;13.20;;;;;;;19.62;nan;97475.56;5016461;28;20204;-62
2023/08/21 05:21:57;;;;;;;14.70;13.50;;;;;;;19.66;nan;97470.50;5013653;28;20209;-61
2023/08/21 05:24:26;;;;;;;16.70;15.47;;;;;;;19.77;nan;97485.00;5017211;28;20287;-61
2023/08/21 05:26:53;;;;;;;14.53;13.53;;;;;;;19.89;nan;97479.59;5016323;28;20242;-62
2023/08/21 05:29:21;;;;;;;14.80;13.60;;;;;;;20.12;nan;97478.75;5017431;28;20663;-61
2023/08/21 05:31:49;;;;;;;14.90;13.70;;;;;;;20.33;nan;97479.97;5019234;28;20205;-62
2023/08/21 05:34:17;;;;;;;23.13;13.00;;;;;;;20.43;nan;97478.53;5018791;28;20201;-61
2023/08/21 05:36:45;;;;;;;14.57;13.57;;;;;;;20.46;nan;97473.50;4880033;28;20730;-62
2023/08/21 05:39:13;;;;;;;13.93;12.83;;;;;;;20.46;nan;97476.19;5016980;28;20204;-61
2023/08/21 05:41:42;;;;;;;14.60;13.43;;;;;;;20.57;nan;97470.97;5012061;28;20636;-62
2023/08/21 05:44:09;;;;;;;13.50;12.30;;;;;;;20.63;nan;97478.09;5018297;28;20215;-62
2023/08/21 05:46:37;;;;;;;14.33;13.33;;;;;;;20.68;nan;97467.44;5013338;28;20216;-62
2023/08/21 05:49:05;;;;;;;14.70;13.40;;;;;;;20.88;nan;97467.00;5018114;28;20215;-62
2023/08/21 05:51:33;;;;;;;16.30;14.13;;;;;;;20.92;nan;97461.91;5013718;28;20200;-62
2023/08/21 05:54:01;;;;;;;15.97;14.57;;;;;;;21.10;nan;97460.84;5018525;28;20211;-63
2023/08/21 05:56:28;;;;;;;16.33;15.00;;;;;;;21.17;nan;97468.78;5011489;28;20248;-63
2023/08/21 05:58:57;;;;;;;16.40;15.20;;;;;;;21.10;nan;97468.94;5019724;28;20679;-62
2023/08/21 06:01:25;;;;;;;15.80;14.60;;;;;;;21.17;nan;97471.47;4953328;28;20300;-61
2023/08/21 06:03:53;;;;;;;17.17;15.87;;;;;;;21.30;nan;97473.81;5017147;28;20208;-63
2023/08/21 06:06:20;;;;;;;16.97;15.23;;;;;;;21.44;nan;97468.09;5012212;28;20652;-62
2023/08/21 06:08:48;;;;;;;16.40;15.10;;;;;;;21.48;nan;97475.44;5018053;28;20216;-63
2023/08/21 06:11:16;;;;;;;16.50;15.13;;;;;;;21.64;nan;97473.81;4887545;28;20702;-62
2023/08/21 06:13:44;;;;;;;15.27;14.03;;;;;;;21.73;nan;97481.47;5017718;28;20816;-61
2023/08/21 06:16:13;;;;;;;15.60;14.50;;;;;;;21.87;nan;97480.03;5012859;28;20232;-63
2023/08/21 06:18:40;;;;;;;15.70;14.50;;;;;;;21.98;nan;97481.78;5017322;28;20196;-63
2023/08/21 06:21:09;;;;;;;15.93;14.37;;;;;;;21.98;nan;97473.72;5015525;28;20437;-64
2023/08/21 06:23:37;;;;;;;16.00;14.87;;;;;;;22.04;nan;97471.91;5015812;28;20242;-62
2023/08/21 06:26:05;;;;;;;15.57;14.37;;;;;;;22.34;nan;97475.19;5014383;28;20228;-62
2023/08/21 06:28:32;;;;;;;15.40;14.27;;;;;;;22.49;nan;97475.38;5017020;28;20220;-63
2023/08/21 06:31:03;;;;;;;15.73;14.17;;;;;;;22.46;nan;97480.47;5012787;28;20404;-64
2023/08/21 06:33:32;;;;;;;15.40;14.10;;;;;;;22.74;nan;97479.41;5015936;28;20216;-63
2023/08/21 06:36:00;;;;;;;15.30;13.93;;;;;;;22.95;nan;97472.28;5015847;28;20631;-64
2023/08/21 06:38:27;;;;;;;15.63;13.93;;;;;;;22.98;nan;97471.78;5013507;28;20199;-62
2023/08/21 06:40:55;;;;;;;14.47;13.47;;;;;;;23.15;nan;97472.72;5013160;28;20196;-64
2023/08/21 06:43:23;;;;;;;15.03;13.90;;;;;;;23.54;nan;97469.75;5017450;28;20227;-64
2023/08/21 06:45:52;;;;;;;13.80;12.67;;;;;;;23.97;nan;97473.22;4890834;28;20743;-64
2023/08/21 06:48:20;;;;;;;14.37;13.17;;;;;;;23.93;nan;97471.31;5017033;28;20224;-65
2023/08/21 06:50:49;;;;;;;14.67;13.57;;;;;;;24.08;nan;97468.69;5012443;28;21101;-66
2023/08/21 06:53:16;;;;;;;14.37;13.27;;;;;;;24.08;nan;97474.13;5016464;28;20212;-66
2023/08/21 06:55:45;;;;;;;12.50;11.70;;;;;;;24.05;nan;97473.81;5012185;28;20220;-65
2023/08/21 06:58:13;;;;;;;13.77;12.77;;;;;;;24.06;nan;97472.78;5016330;28;20212;-63
2023/08/21 07:00:41;;;;;;;14.03;12.90;;;;;;;24.09;nan;97467.63;5012302;28;20222;-65
2023/08/21 07:03:08;;;;;;;14.10;13.10;;;;;;;24.35;nan;97473.13;5017562;28;20212;-64
2023/08/21 07:05:36;;;;;;;14.13;13.07;;;;;;;24.35;nan;97470.41;5015936;28;20938;-62
2023/08/21 07:08:06;;;;;;;13.77;12.87;;;;;;;24.40;nan;97465.00;5012878;28;20227;-61
2023/08/21 07:10:36;;;;;;;14.37;13.00;;;;;;;24.58;nan;97473.69;5015475;28;20688;-62
2023/08/21 07:13:04;;;;;;;13.77;12.67;;;;;;;24.65;nan;97471.56;5018919;28;20201;-62
2023/08/21 07:15:32;;;;;;;13.80;12.80;;;;;;;24.66;nan;97469.66;5018671;28;20668;-63
2023/08/21 07:17:59;;;;;;;13.73;12.63;;;;;;;24.88;nan;97476.78;5024129;28;20201;-62
2023/08/21 07:20:27;;;;;;;13.40;12.50;;;;;;;25.21;nan;97467.28;4961180;28;21015;-64
2023/08/21 07:22:55;;;;;;;12.87;11.77;;;;;;;25.13;nan;97465.91;4956846;28;20213;-60
2023/08/21 07:25:25;;;;;;;12.90;11.77;;;;;;;25.37;nan;97468.06;5021079;28;20229;-63
2023/08/21 07:27:55;;;;;;;13.53;12.47;;;;;;;25.50;nan;97471.31;5019369;28;20294;-63
2023/08/21 07:30:23;;;;;;;13.17;11.83;;;;;;;25.52;nan;97469.97;5022793;28;20200;-63
2023/08/21 07:32:51;;;;;;;12.20;11.30;;;;;;;25.50;nan;97471.31;5015287;28;20213;-62
2023/08/21 07:35:19;;;;;;;12.33;11.43;;;;;;;25.55;nan;97480.28;5020659;28;20217;-63
2023/08/21 07:37:46;;;;;;;12.60;11.60;;;;;;;25.63;nan;97467.22;5015925;28;20314;-63
2023/08/21 07:40:14;;;;;;;13.53;12.60;;;;;;;25.78;nan;97466.38;5019933;28;20312;-62
2023/08/21 07:42:43;;;;;;;13.23;12.23;;;;;;;25.95;nan;97469.59;5014800;28;20201;-61
2023/08/21 07:45:11;;;;;;;12.13;11.23;;;;;;;25.86;nan;97476.66;5016826;28;20208;-63
2023/08/21 07:47:39;;;;;;;12.07;11.17;;;;;;;25.75;nan;97469.63;4983815;28;20229;-64
2023/08/21 07:50:08;;;;;;;11.83;10.93;;;;;;;25.95;nan;97475.00;4995050;28;20263;-62
2023/08/21 07:52:37;;;;;;;12.53;11.63;;;;;;;26.08;nan;97470.06;4957874;28;20830;-64
2023/08/21 07:55:06;;;;;;;11.77;10.83;;;;;;;26.10;nan;97471.38;4957260;28;20842;-62
2023/08/21 07:57:34;;;;;;;13.47;12.37;;;;;;;26.21;nan;97476.81;5018805;28;20221;-63
2023/08/21 08:00:04;;;;;;;11.17;10.20;;;;;;;26.28;nan;97474.63;5014891;28;20238;-63
2023/08/21 08:02:32;;;;;;;11.20;10.20;;;;;;;26.14;nan;97477.91;5018693;28;20235;-63
2023/08/21 08:04:59;;;;;;;12.67;11.40;;;;;;;25.88;nan;97474.47;5016811;28;20214;-63
2023/08/21 08:07:27;;;;;;;12.10;11.07;;;;;;;25.85;nan;97477.75;5018344;28;20256;-63
2023/08/21 08:09:55;;;;;;;13.30;11.97;;;;;;;25.86;nan;97476.66;5016147;28;20256;-64
2023/08/21 08:12:23;;;;;;;13.50;12.43;;;;;;;25.87;nan;97483.69;5020970;28;20639;-63
2023/08/21 08:14:50;;;;;;;10.87;10.07;;;;;;;26.10;nan;97473.31;5017771;28;20288;-64
2023/08/21 08:17:19;;;;;;;12.63;11.50;;;;;;;26.20;nan;97478.72;5016251;28;20256;-64
2023/08/21 08:19:47;;;;;;;10.07;9.47;;;;;;;26.18;nan;97474.69;5018110;28;20232;-63
2023/08/21 08:22:14;;;;;;;10.83;9.97;;;;;;;26.38;nan;97481.91;5018439;28;20287;-62
2023/08/21 08:24:42;;;;;;;12.00;11.20;;;;;;;26.56;nan;97478.53;5014577;28;20672;-63
2023/08/21 08:27:10;;;;;;;12.47;11.60;;;;;;;26.70;nan;97481.44;5018542;28;20235;-64
2023/08/21 08:29:38;;;;;;;13.57;12.43;;;;;;;26.59;nan;97460.84;4884904;28;20224;-63
2023/08/21 08:32:06;;;;;;;13.60;12.50;;;;;;;26.74;nan;97478.97;5017100;28;20214;-64
2023/08/21 08:34:35;;;;;;;13.80;12.87;;;;;;;26.87;nan;97488.41;5016932;28;20208;-63
2023/08/21 08:37:03;;;;;;;14.17;13.07;;;;;;;27.06;nan;97485.81;5018025;28;20229;-64
2023/08/21 08:39:31;;;;;;;13.93;13.03;;;;;;;26.99;nan;97479.88;5015595;28;20743;-63
2023/08/21 08:42:00;;;;;;;13.77;12.77;;;;;;;27.01;nan;97477.69;5016964;28;20221;-64
2023/08/21 08:44:28;;;;;;;13.70;12.77;;;;;;;27.13;nan;97480.88;5017125;28;20215;-63
2023/08/21 08:46:56;;;;;;;14.20;13.07;;;;;;;27.10;nan;97470.56;5016008;28;20243;-64
2023/08/21 08:49:25;;;;;;;14.47;13.47;;;;;;;27.25;nan;97493.28;5014659;28;20702;-64
2023/08/21 08:51:55;;;;;;;13.47;12.47;;;;;;;27.38;nan;97481.72;5020567;28;20238;-64
2023/08/21 08:54:23;;;;;;;13.47;12.37;;;;;;;27.43;nan;97487.09;5012752;28;20831;-62
2023/08/21 08:56:50;;;;;;;14.13;12.80;;;;;;;27.51;nan;97488.44;5015968;28;20234;-63
2023/08/21 08:59:18;;;;;;;13.03;12.17;;;;;;;27.62;nan;97486.41;4886912;28;20218;-64
2023/08/21 09:01:46;;;;;;;13.73;12.73;;;;;;;27.85;nan;97486.72;5016043;28;20674;-62
2023/08/21 09:04:14;;;;;;;14.47;13.30;;;;;;;27.85;nan;97489.44;5016682;28;20251;-61
2023/08/21 09:06:41;;;;;;;13.60;12.60;;;;;;;27.88;nan;97483.44;5016906;28;20216;-62
2023/08/21 09:09:12;;;;;;;13.43;12.43;;;;;;;27.93;nan;97491.53;5015720;28;20232;-61
2023/08/21 09:11:43;;;;;;;14.47;13.20;;;;;;;27.86;nan;97485.63;5016856;28;20208;-61
2023/08/21 09:14:11;;;;;;;15.90;14.33;;;;;;;27.91;nan;97488.28;5015089;28;20196;-62
2023/08/21 09:16:57;;;;;;;13.80;12.80;;;;;;;27.92;nan;97481.75;5018817;28;20914;-62
2023/08/21 09:19:25;;;;;;;13.77;12.87;;;;;;;28.13;nan;97493.19;5015912;28;20561;-63
2023/08/21 09:21:53;;;;;;;13.37;12.47;;;;;;;28.16;nan;97483.66;5018411;28;20251;-63
2023/08/21 09:24:22;;;;;;;13.57;12.20;;;;;;;28.14;nan;97488.53;5012053;28;20196;-63
2023/08/21 09:26:51;;;;;;;12.63;11.63;;;;;;;28.33;nan;97487.81;5015741;28;20247;-63
2023/08/21 09:29:18;;;;;;;12.67;11.80;;;;;;;28.53;nan;97484.78;4886727;28;20239;-62
2023/08/21 09:31:46;;;;;;;12.57;11.60;;;;;;;28.41;nan;97485.25;5013979;28;20197;-62
2023/08/21 09:34:14;;;;;;;12.33;11.50;;;;;;;28.49;nan;97489.19;5017670;28;20278;-63
2023/08/21 09:36:42;;;;;;;12.40;11.57;;;;;;;28.49;nan;97480.22;5013418;28;20230;-62
2023/08/21 09:39:17;;;;;;;13.80;12.50;;;;;;;28.51;nan;97467.91;5012915;28;20211;-65
2023/08/21 09:41:55;;;;;;;10.90;10.00;;;;;;;28.63;nan;97481.09;5019342;28;20196;-65
2023/08/21 09:44:23;;;;;;;11.67;10.77;;;;;;;28.77;nan;97489.34;5017423;28;20207;-64
2023/08/21 09:46:51;;;;;;;10.30;9.50;;;;;;;28.80;nan;97477.88;5015507;28;20301;-63
2023/08/21 09:49:19;;;;;;;11.17;10.27;;;;;;;28.79;nan;97484.44;5013852;28;20224;-63
2023/08/21 09:51:47;;;;;;;10.30;9.60;;;;;;;28.98;nan;97470.78;5018805;28;20216;-63
2023/08/21 09:54:15;;;;;;;10.53;9.73;;;;;;;28.96;nan;97472.19;5013532;28;20219;-62
2023/08/21 09:56:43;;;;;;;10.90;9.90;;;;;;;28.84;nan;97470.72;5016195;28;20230;-64
2023/08/21 09:59:13;;;;;;;9.07;8.47;;;;;;;29.06;nan;97471.22;5013544;28;20208;-63
2023/08/21 10:01:41;;;;;;;9.43;8.63;;;;;;;29.05;nan;97470.41;5015726;28;20211;-64
2023/08/21 10:04:10;;;;;;;10.37;9.47;;;;;;;29.02;nan;97465.56;4884146;28;20219;-63
2023/08/21 10:06:39;;;;;;;10.17;9.40;;;;;;;29.14;nan;97467.78;5019557;28;20684;-63
2023/08/21 10:09:07;;;;;;;8.80;8.30;;;;;;;28.99;nan;97466.16;5013560;28;20270;-63
2023/08/21 10:11:35;;;;;;;10.67;9.87;;;;;;;29.09;nan;97463.25;5018411;28;20257;-61
2023/08/21 10:14:03;;;;;;;9.30;8.60;;;;;;;29.12;nan;97462.66;5013226;28;21519;-64
2023/08/21 10:16:32;;;;;;;9.47;8.53;;;;;;;29.27;nan;97455.28;5018948;28;20763;-63
2023/08/21 10:19:03;;;;;;;8.53;7.73;;;;;;;29.40;nan;97449.09;5015820;28;20823;-63
2023/08/21 10:21:35;;;;;;;8.67;8.07;;;;;;;29.40;nan;97435.47;5020388;28;20212;-64
2023/08/21 10:24:03;;;;;;;8.00;7.30;;;;;;;29.49;nan;97456.59;5008957;28;20200;-65
2023/08/21 10:26:31;;;;;;;8.23;7.63;;;;;;;29.53;nan;97442.03;5021180;28;20216;-66
2023/08/21 10:29:02;;;;;;;10.53;9.10;;;;;;;29.55;nan;97450.75;5013943;28;20646;-65
2023/08/21 10:31:33;;;;;;;8.67;8.07;;;;;;;29.50;nan;97444.56;5020590;28;20211;-64
2023/08/21 10:34:02;;;;;;;10.10;9.30;;;;;;;29.43;nan;97443.03;5017362;28;20281;-64
2023/08/21 10:37:07;;;;;;;9.13;8.53;;;;;;;29.40;nan;97451.84;5017079;28;20239;-64
2023/08/21 10:39:37;;;;;;;6.90;6.30;;;;;;;29.35;nan;97442.88;4878513;28;20693;-62
2023/08/21 10:42:07;;;;;;;7.73;7.13;;;;;;;29.50;nan;97434.44;5020351;28;20216;-64
2023/08/21 10:44:48;;;;;;;7.60;6.53;;;;;;;29.70;nan;97443.34;5012739;28;20656;-65
2023/08/21 10:47:19;;;;;;;8.80;8.03;;;;;;;29.68;nan;97438.19;5017286;28;20223;-66
2023/08/21 10:49:48;;;;;;;9.00;8.20;;;;;;;29.59;nan;97434.56;5012660;28;20589;-64
2023/08/21 10:52:21;;;;;;;8.60;8.00;;;;;;;29.57;nan;97443.06;5018474;28;20212;-63
2023/08/21 10:54:51;;;;;;;8.33;7.73;;;;;;;29.54;nan;97437.38;5012354;28;20205;-63
2023/08/21 10:57:19;;;;;;;7.70;7.07;;;;;;;29.60;nan;97433.44;5022673;28;20254;-66
2023/08/21 10:59:53;;;;;;;7.77;7.27;;;;;;;29.96;nan;97437.38;5017662;28;20209;-64
2023/08/21 11:02:23;;;;;;;7.70;7.00;;;;;;;29.77;nan;97432.84;5019498;28;20204;-64
2023/08/21 11:04:51;;;;;;;7.10;6.50;;;;;;;29.82;nan;97435.44;5015610;28;20204;-62
2023/08/21 11:07:19;;;;;;;7.77;7.27;;;;;;;29.98;nan;97435.16;5022080;28;20628;-64
2023/08/21 11:09:47;;;;;;;7.10;6.70;;;;;;;30.15;nan;97438.06;4890734;28;20227;-65
2023/08/21 11:12:16;;;;;;;8.50;7.70;;;;;;;30.04;nan;97432.03;5020624;28;20213;-65
2023/08/21 11:14:44;;;;;;;7.97;7.30;;;;;;;30.17;nan;97432.31;5018248;28;20223;-65
2023/08/21 11:17:12;;;;;;;7.57;6.97;;;;;;;30.07;nan;97427.06;5018176;28;20599;-63
2023/08/21 11:19:42;;;;;;;8.03;7.30;;;;;;;30.11;nan;97428.88;5017172;28;20231;-65
2023/08/21 11:22:11;;;;;;;8.13;7.47;;;;;;;30.17;nan;97432.31;5017106;28;20748;-63
2023/08/21 11:24:44;;;;;;;8.33;7.70;;;;;;;30.04;nan;97426.56;5018909;28;22456;-62
2023/08/21 11:27:14;;;;;;;8.40;7.60;;;;;;;30.19;nan;97430.09;5017606;28;21830;-62
2023/08/21 11:29:42;;;;;;;8.77;8.07;;;;;;;30.32;nan;97421.03;5018048;28;20227;-62
2023/08/21 11:32:12;;;;;;;8.80;8.10;;;;;;;30.10;nan;97405.41;5018927;28;20208;-62
2023/08/21 11:34:40;;;;;;;7.90;7.30;;;;;;;30.18;nan;97417.53;5017457;28;20217;-62
2023/08/21 11:37:09;;;;;;;8.20;7.40;;;;;;;30.29;nan;97420.84;5016932;28;20228;-65
2023/08/21 11:39:44;;;;;;;7.23;6.57;;;;;;;30.17;nan;97415.94;4889514;28;20220;-65
2023/08/21 11:42:13;;;;;;;8.20;7.57;;;;;;;30.19;nan;97419.16;5018727;28;20223;-65